Denver, Colorado
Traffic Map
Current Weather Conditions
Denver, Colorado
Scattered Clouds
Scattered Clouds
11°
Feels Like: 11°
Wind Chill: 11° Ceiling: Unl
Heat Index: 11° Visibility: 10mi
Dew Point: Wind: 10mph
Humidity: 55% Direction: 200° (SSW)
Pressure: 30.05in Gusts: 0mph
Raw Report DataKBKF 211258Z 20009KT 10SM FEW110 SCT220 11/02 A3005 RMK AO2A SLP120 T01120024
Traffic Incident Summary
Active as of:
Severity:
Category:
InformationThere was an issue retrieving the traffic information for this location. Please try a different location or try again shortly.
Advertisements
Track Severe Weather on mobile